createdAt,value
2022-10-18T00:21:25.072Z,98842.53
2022-10-18T00:26:30.617Z,98854.38
2022-10-18T00:31:37.191Z,98840.00
2022-10-18T00:36:40.834Z,98711.84
2022-10-18T00:41:46.205Z,98838.84
2022-10-18T00:46:50.394Z,98834.22
2022-10-18T00:51:59.189Z,98824.59
2022-10-18T00:57:03.457Z,98777.25
2022-10-18T01:02:08.165Z,98796.69
2022-10-18T01:07:38.157Z,98743.91
2022-10-18T01:12:50.656Z,98726.53
2022-10-18T01:18:12.634Z,98774.63
2022-10-18T01:23:41.338Z,98792.34
2022-10-18T01:29:01.673Z,98777.47
2022-10-18T01:34:10.329Z,98690.09
2022-10-18T01:39:22.384Z,98755.47
2022-10-18T01:44:30.447Z,98730.34
2022-10-18T01:49:35.265Z,98788.50
2022-10-18T01:54:42.508Z,98805.09
2022-10-18T01:59:49.188Z,98798.34
2022-10-18T02:05:19.159Z,98592.66
2022-10-18T02:10:33.153Z,98810.28
2022-10-18T02:15:40.939Z,98751.69
2022-10-18T02:20:46.646Z,98709.91
2022-10-18T02:25:53.792Z,98786.97
2022-10-18T02:31:31.089Z,98780.72
2022-10-18T02:36:41.513Z,98761.50
2022-10-18T02:41:45.539Z,98710.31
2022-10-18T02:46:49.608Z,98749.97
2022-10-18T02:51:53.610Z,98620.56
2022-10-18T02:56:57.329Z,98672.78
2022-10-18T03:02:10.878Z,98677.03
2022-10-18T03:07:14.492Z,98516.03
2022-10-18T03:12:18.396Z,98614.78
2022-10-18T03:17:22.048Z,98762.00
2022-10-18T03:22:26.331Z,98615.47
2022-10-18T03:27:30.539Z,98731.03
2022-10-18T03:32:34.767Z,98557.41
2022-10-18T03:37:39.171Z,98714.81
2022-10-18T03:42:42.798Z,98759.72
2022-10-18T03:47:46.842Z,98600.19
2022-10-18T03:52:50.913Z,98639.94
2022-10-18T03:57:54.483Z,98719.53
2022-10-18T04:02:58.141Z,98604.63
2022-10-18T04:08:01.961Z,98584.50
2022-10-18T04:13:09.319Z,98762.34
2022-10-18T04:18:12.885Z,98770.59
2022-10-18T04:23:16.552Z,98765.41
2022-10-18T04:28:21.580Z,98673.59
2022-10-18T04:33:25.186Z,98767.97
2022-10-18T04:38:29.068Z,98524.66
2022-10-18T04:43:33.183Z,98719.09
2022-10-18T04:48:36.886Z,98700.19
2022-10-18T04:53:40.378Z,98641.28
2022-10-18T04:58:44.073Z,98705.28
2022-10-18T05:03:47.491Z,98775.47
2022-10-18T05:08:50.945Z,98662.78
2022-10-18T05:13:55.215Z,98607.38
2022-10-18T05:18:58.738Z,98668.91
2022-10-18T05:24:02.212Z,98652.72
2022-10-18T05:29:05.801Z,98770.50
2022-10-18T05:34:09.479Z,98684.81
2022-10-18T05:39:12.996Z,98674.16
2022-10-18T05:44:16.403Z,98682.38
2022-10-18T05:49:20.015Z,98632.88
2022-10-18T05:54:23.509Z,98507.53
2022-10-18T05:59:27.062Z,98709.38
2022-10-18T06:04:30.470Z,98742.00
2022-10-18T06:09:34.017Z,98745.84
2022-10-18T06:14:38.359Z,98578.47
2022-10-18T06:19:45.153Z,98759.19
2022-10-18T06:24:48.590Z,98701.13
2022-10-18T06:29:52.022Z,98617.03
2022-10-18T06:34:55.492Z,98740.00
2022-10-18T06:39:59.022Z,98635.78
2022-10-18T06:45:02.564Z,98639.50
2022-10-18T06:50:07.540Z,98770.19
2022-10-18T06:55:11.221Z,98752.16
2022-10-18T07:00:15.520Z,98780.28
2022-10-18T07:05:19.412Z,98774.31
2022-10-18T07:10:23.682Z,98815.31
2022-10-18T07:15:27.385Z,98733.88
2022-10-18T07:20:31.098Z,98776.16
2022-10-18T07:25:35.486Z,98695.84
2022-10-18T07:30:39.117Z,98734.94
2022-10-18T07:35:42.630Z,98739.41
2022-10-18T07:40:46.095Z,98672.25
2022-10-18T07:45:57.767Z,98804.63
2022-10-18T07:51:02.114Z,98799.56
2022-10-18T07:56:09.690Z,98799.59
2022-10-18T08:01:14.951Z,98791.91
2022-10-18T08:06:19.924Z,98784.31
2022-10-18T08:11:25.621Z,98688.88
2022-10-18T08:21:34.194Z,98694.41
2022-10-18T08:26:37.802Z,98700.34
2022-10-18T08:31:41.424Z,98737.56
2022-10-18T08:36:45.017Z,98510.28
2022-10-18T08:42:19.466Z,98728.03
2022-10-18T08:47:31.987Z,98639.59
2022-10-18T08:52:45.681Z,98703.81
2022-10-18T08:57:54.433Z,98716.72
2022-10-18T09:03:22.987Z,98700.41
2022-10-18T09:08:52.898Z,98613.34
2022-10-18T10:07:36.850Z,98650.88
2022-10-18T10:12:42.167Z,98632.81
2022-10-18T10:17:57.033Z,98427.63
2022-10-18T10:23:46.627Z,98584.34
2022-10-18T10:28:50.868Z,98651.53
2022-10-18T10:34:07.668Z,98610.38
2022-10-18T10:39:19.630Z,98638.72
2022-10-18T10:44:26.181Z,98627.22
2022-10-18T10:49:48.750Z,98553.00
2022-10-18T10:54:53.877Z,98550.25
2022-10-18T11:00:00.913Z,98617.38
2022-10-18T11:05:24.760Z,98616.38
2022-10-18T11:10:35.065Z,98563.44
2022-10-18T11:15:47.050Z,98545.28
2022-10-18T11:21:08.873Z,98590.59
2022-10-18T11:26:31.770Z,98422.50
2022-10-18T11:32:00.389Z,98573.88
2022-10-18T11:37:41.800Z,98559.13
2022-10-18T11:42:51.557Z,98557.78
2022-10-18T11:48:31.992Z,98554.66
2022-10-18T11:53:54.211Z,98549.13
2022-10-18T11:58:57.588Z,98547.53
2022-10-18T12:04:14.336Z,98483.63
2022-10-18T12:09:30.310Z,98479.47
2022-10-18T12:14:51.988Z,98260.97
2022-10-18T12:19:58.242Z,98379.84
2022-10-18T12:25:02.841Z,98459.31
2022-10-18T12:30:46.482Z,98487.63
2022-10-18T12:36:14.494Z,98408.22
2022-10-18T12:41:22.702Z,98367.81
2022-10-18T12:46:43.634Z,98480.78
2022-10-18T12:51:53.727Z,98476.34
2022-10-18T12:56:58.323Z,98302.25
2022-10-18T13:02:01.740Z,98474.47
2022-10-18T13:07:11.672Z,98409.56
2022-10-18T13:12:15.177Z,98469.19
2022-10-18T13:17:34.940Z,98466.16
2022-10-18T13:22:50.738Z,98411.81
2022-10-18T13:28:17.322Z,98432.66
2022-10-18T13:33:42.707Z,98457.97
2022-10-18T13:38:56.453Z,98456.88
2022-10-18T13:44:14.913Z,98235.69
2022-10-18T13:49:27.798Z,98456.97
2022-10-18T13:54:51.728Z,98455.88
2022-10-18T14:00:28.101Z,98189.25
2022-10-18T14:06:09.815Z,98399.91
2022-10-18T14:11:31.525Z,98443.97
2022-10-18T14:16:47.852Z,98442.00
2022-10-18T14:22:26.048Z,98395.63
2022-10-18T14:27:33.462Z,98364.44
2022-10-18T14:32:37.848Z,98439.94
2022-10-18T14:37:41.222Z,98425.56
2022-10-18T14:42:49.458Z,98310.34
2022-10-18T14:47:53.056Z,98215.13
2022-10-18T14:52:57.303Z,98416.22
2022-10-18T14:58:01.150Z,98271.00
2022-10-18T15:03:06.763Z,98403.47
2022-10-18T15:08:11.087Z,98352.19
2022-10-18T15:13:16.051Z,98194.47
2022-10-18T15:18:28.859Z,98395.50
2022-10-18T15:23:32.310Z,98384.97
2022-10-18T15:28:41.458Z,98272.69
2022-10-18T15:33:45.086Z,98312.66
2022-10-18T15:38:50.037Z,98280.72
2022-10-18T15:44:27.218Z,98361.00
2022-10-18T15:49:56.290Z,98373.13
2022-10-18T15:55:00.610Z,98340.22
2022-10-18T16:00:07.872Z,98419.94
2022-10-18T16:10:16.228Z,98389.47
2022-10-18T16:15:21.185Z,98373.78
2022-10-18T16:20:26.057Z,98457.19
2022-10-18T16:25:29.594Z,98472.44
2022-10-18T16:30:35.374Z,98429.50
2022-10-18T16:35:39.263Z,98463.00
2022-10-18T16:40:42.796Z,98417.03
2022-10-18T16:46:36.405Z,98492.59
2022-10-18T16:51:40.395Z,98446.38
2022-10-18T16:56:44.600Z,98509.66
2022-10-18T17:01:48.205Z,98486.97
2022-10-18T17:13:45.688Z,98521.59
2022-10-18T17:18:49.372Z,98468.31
2022-10-18T17:23:53.072Z,98503.03
2022-10-18T17:29:03.977Z,98523.94
2022-10-18T17:34:34.514Z,98516.72
2022-10-18T17:39:39.308Z,98466.09
2022-10-18T17:44:44.415Z,98449.31
2022-10-18T17:49:48.851Z,98473.72
2022-10-18T17:54:52.490Z,98472.03
2022-10-18T17:59:57.112Z,98530.69
2022-10-18T18:05:01.142Z,98524.00
2022-10-18T18:10:05.457Z,98471.22
2022-10-18T18:15:10.324Z,98435.47
2022-10-18T18:20:19.315Z,98445.88
2022-10-18T18:25:26.049Z,98481.63
2022-10-18T18:30:40.532Z,98505.31
2022-10-18T18:35:45.514Z,98437.03
2022-10-18T18:40:49.077Z,98474.28
2022-10-18T18:45:58.558Z,98483.34
2022-10-18T18:51:09.828Z,98473.22
2022-10-18T18:56:40.782Z,98486.84
2022-10-18T19:01:44.837Z,98484.59
2022-10-18T19:06:48.326Z,98452.06
2022-10-18T19:11:53.908Z,98481.88
2022-10-18T19:17:02.530Z,98441.81
2022-10-18T19:35:54.263Z,98467.91
2022-10-18T19:40:57.200Z,98377.22
2022-10-18T19:46:04.183Z,98461.25
2022-10-18T19:51:09.556Z,98488.69
2022-10-18T19:56:33.067Z,98468.78
2022-10-18T20:01:36.662Z,98493.56
2022-10-18T20:06:43.911Z,98491.75
2022-10-18T20:11:47.274Z,98447.66
2022-10-18T20:16:49.996Z,98245.19
2022-10-18T20:28:46.529Z,98459.50
2022-10-18T20:33:55.624Z,98459.28
2022-10-18T20:39:23.756Z,98469.31
2022-10-18T20:44:27.966Z,98320.31
2022-10-18T20:49:30.940Z,98260.28
2022-10-18T20:54:33.684Z,98322.16
2022-10-18T20:59:37.608Z,98417.53
2022-10-18T21:04:42.294Z,98228.03
2022-10-18T21:09:45.312Z,98444.06
2022-10-18T21:14:48.307Z,98428.44
2022-10-18T21:19:51.255Z,98351.94
2022-10-18T21:24:54.037Z,98298.75
2022-10-18T21:29:57.457Z,98390.88
2022-10-18T21:35:01.137Z,98372.81
2022-10-18T21:46:58.083Z,98368.06
2022-10-18T21:52:04.393Z,98431.34
2022-10-18T21:57:07.379Z,98397.25
2022-10-18T22:02:10.122Z,98369.22
2022-10-18T22:07:12.999Z,98284.50
2022-10-18T22:12:15.748Z,98422.59
2022-10-18T22:17:19.096Z,98392.50
2022-10-18T22:22:21.807Z,98343.31
2022-10-18T22:27:24.908Z,98395.09
2022-10-18T22:32:27.637Z,98267.56
2022-10-18T22:37:30.662Z,98351.44
2022-10-18T22:49:34.892Z,98330.00
2022-10-18T22:54:37.721Z,98341.06
2022-10-18T22:59:40.471Z,98340.16
2022-10-18T23:04:43.310Z,98391.34
2022-10-18T23:09:46.036Z,98363.09
2022-10-18T23:14:48.955Z,98200.03
2022-10-18T23:19:51.891Z,98338.91
2022-10-18T23:24:54.908Z,98189.84
2022-10-18T23:29:57.840Z,98355.56
2022-10-18T23:35:00.793Z,98214.84
2022-10-18T23:40:03.637Z,98368.97
2022-10-18T23:52:00.011Z,98321.88
2022-10-18T23:57:02.951Z,98371.28
